Meally, Kentucky
Current Conditions -  °F | °C
As of 10:55 PM on Sunday 23 Nov 2014 (Local Time) from KSJS Reporting Station
Broken Clouds Broken Clouds  
Wind Chill: 61°   Ceiling: 10000
Heat Index: 61°   Visibility: 10mi
Dew Point: 53°   Wind: 15mph
Humidity: 74%   Direction: 180°S
Pressure: 29.48"   Gusts: 22mph
Location:  37.8°N, 82.74°W
Report Text: KSJS 240355Z AUTO 18013G19KT 10SM SCT050 BKN100 16/12 A2948 RMK AO2 T01620115
Loading
Personal Weather Stations






























Interactive Weather Map New forecast layout! Learn more

10-Day Weather Forecast

Advertisements
Track Severe Weather on mobile